Terminal Aerodrome Forecast
Issued by NWS

Current Version | Previous Version | Graphics & Text | Print | Product List | Glossary On
Versions: 1 2 3 4 5 6 7 8 9 10 11 12 13 14 15 16 17 18 19 20 21 22
000
FTUS41 KILN 271900 AAA
TAFLUK
TAF AMD
KLUK 271956Z 2720/2818 24010G18KT P6SM VCSH OVC015
     FM272300 25014G24KT P6SM VCSH OVC025
     FM280000 29009KT P6SM SCT040
     FM280800 29008KT P6SM SCT015
     FM281500 31011KT P6SM BKN025=

USA.gov is the U.S. government's official web portal to all federal, state and local government web resources and services.